createdAt,value
2022-09-13T03:47:23.800Z,9.96
2022-09-13T03:50:21.382Z,9.95
2022-09-13T05:19:42.517Z,11.09
2022-09-13T05:22:21.015Z,11.38
2022-09-13T05:24:53.114Z,11.46
2022-09-13T05:27:25.134Z,11.51
2022-09-13T05:29:57.146Z,11.54
2022-09-13T05:32:29.607Z,11.59
2022-09-13T05:35:02.602Z,11.70
2022-09-13T05:37:34.663Z,11.77
2022-09-13T05:40:12.238Z,11.86
2022-09-13T05:42:47.338Z,11.99
2022-09-13T05:45:19.604Z,12.07
2022-09-13T05:47:54.380Z,12.14
2022-09-13T05:50:54.193Z,12.21
2022-09-13T05:53:16.835Z,12.26
2022-09-13T05:55:48.913Z,12.20
2022-09-13T05:58:20.907Z,12.14
2022-09-13T06:00:57.541Z,12.12
2022-09-13T06:03:29.692Z,12.17
2022-09-13T06:06:01.668Z,12.17
2022-09-13T06:08:34.939Z,12.26
2022-09-13T06:11:10.070Z,12.38
2022-09-13T06:13:43.392Z,12.51
2022-09-13T06:16:17.398Z,12.61
2022-09-13T06:18:49.970Z,12.73
2022-09-13T06:21:28.435Z,12.83
2022-09-13T06:24:01.396Z,12.93
2022-09-13T06:26:33.764Z,13.01
2022-09-13T06:29:05.873Z,13.07
2022-09-13T06:31:39.264Z,13.19
2022-09-13T06:34:15.710Z,13.27
2022-09-13T06:36:47.726Z,13.36
2022-09-13T06:39:19.743Z,13.50
2022-09-13T06:41:51.756Z,13.54
2022-09-13T06:44:25.848Z,13.59
2022-09-13T06:46:57.904Z,13.62
2022-09-13T06:49:31.643Z,13.64
2022-09-13T06:52:03.939Z,13.62
2022-09-13T06:54:36.188Z,13.64
2022-09-13T06:57:08.215Z,13.69
2022-09-13T06:59:40.338Z,13.75
2022-09-13T07:02:14.669Z,13.81
2022-09-13T07:04:46.701Z,13.88
2022-09-13T07:07:19.418Z,13.95
2022-09-13T07:09:51.441Z,13.99
2022-09-13T07:12:23.661Z,14.05
2022-09-13T07:14:56.090Z,14.13
2022-09-13T07:17:31.466Z,14.19
2022-09-13T07:20:06.274Z,14.26
2022-09-13T07:22:38.462Z,14.32
2022-09-13T07:25:11.805Z,14.40
2022-09-13T07:27:43.855Z,14.51
2022-09-13T07:30:16.249Z,14.73
2022-09-13T07:32:48.230Z,14.89
2022-09-13T07:35:20.566Z,15.08
2022-09-13T07:37:55.270Z,15.23
2022-09-13T07:40:25.864Z,15.36
2022-09-13T07:42:57.954Z,15.46
2022-09-13T07:45:29.955Z,15.55
2022-09-13T07:48:02.145Z,15.44
2022-09-13T07:50:34.248Z,15.36
2022-09-13T07:53:06.219Z,15.33
2022-09-13T07:55:38.291Z,15.31
2022-09-13T07:58:10.356Z,15.33
2022-09-13T08:00:42.502Z,15.35
2022-09-13T08:03:14.608Z,15.36
2022-09-13T08:05:46.595Z,15.36
2022-09-13T08:08:20.160Z,15.31
2022-09-13T08:10:52.238Z,15.28
2022-09-13T08:13:24.431Z,15.35
2022-09-13T08:15:56.974Z,15.42
2022-09-13T08:18:29.208Z,15.47
2022-09-13T08:21:02.424Z,15.52
2022-09-13T08:23:34.411Z,15.64
2022-09-13T08:26:08.271Z,15.72
2022-09-13T08:28:41.417Z,15.74
2022-09-13T08:31:17.307Z,15.69
2022-09-13T08:33:50.517Z,15.67
2022-09-13T08:36:24.151Z,15.69
2022-09-13T08:38:59.350Z,15.70
2022-09-13T08:41:52.662Z,15.74
2022-09-13T08:44:29.703Z,15.77
2022-09-13T08:47:15.347Z,15.78
2022-09-13T08:49:51.677Z,15.80
2022-09-13T08:52:30.718Z,15.85
2022-09-13T08:55:09.513Z,15.95
2022-09-13T08:57:49.934Z,16.05
2022-09-13T09:00:27.663Z,16.07
2022-09-13T09:03:11.940Z,16.09
2022-09-13T09:05:50.641Z,16.08
2022-09-13T09:08:34.108Z,16.07
2022-09-13T09:11:13.798Z,16.05
2022-09-13T09:13:54.358Z,16.06
2022-09-13T09:16:34.742Z,16.09
2022-09-13T09:19:17.100Z,16.15
2022-09-13T09:21:51.200Z,16.22
2022-09-13T09:24:25.742Z,16.26
2022-09-13T09:27:02.386Z,16.30
2022-09-13T09:29:38.419Z,16.35
2022-09-13T09:32:21.590Z,16.43
2022-09-13T09:35:06.056Z,16.53
2022-09-13T09:37:41.150Z,16.70
2022-09-13T09:40:17.326Z,16.77
2022-09-13T09:42:51.022Z,16.83
2022-09-13T09:45:29.056Z,16.87
2022-09-13T09:48:09.571Z,16.89
2022-09-13T09:50:48.885Z,16.87
2022-09-13T09:53:27.235Z,16.87
2022-09-13T09:56:04.039Z,16.89
2022-09-13T09:58:45.374Z,16.94
2022-09-13T10:01:26.661Z,17.03
2022-09-13T10:04:06.324Z,17.03
2022-09-13T10:06:40.539Z,17.05
2022-09-13T10:09:20.009Z,17.10
2022-09-13T10:11:54.400Z,17.12
2022-09-13T10:14:39.312Z,17.17
2022-09-13T10:17:22.068Z,17.22
2022-09-13T10:20:01.602Z,17.24
2022-09-13T10:22:34.736Z,17.28
2022-09-13T10:25:23.011Z,17.40
2022-09-13T10:27:58.229Z,17.48
2022-09-13T10:30:37.473Z,17.47
2022-09-13T10:33:18.994Z,17.45
2022-09-13T10:35:55.220Z,17.46
2022-09-13T10:38:32.550Z,17.46
2022-09-13T10:41:07.802Z,17.44
2022-09-13T10:43:40.407Z,17.40
2022-09-13T10:46:23.246Z,17.34
2022-09-13T10:48:57.418Z,17.26
2022-09-13T10:51:38.181Z,17.19
2022-09-13T10:54:21.871Z,17.14
2022-09-13T10:56:54.117Z,17.08
2022-09-13T10:59:29.726Z,17.02
2022-09-13T11:02:31.393Z,17.01
2022-09-13T11:05:18.924Z,17.05
2022-09-13T11:08:16.672Z,17.05
2022-09-13T11:11:01.734Z,17.07
2022-09-13T11:13:40.828Z,17.09
2022-09-13T11:16:32.431Z,17.09
2022-09-13T11:19:20.252Z,17.08
2022-09-13T11:22:07.863Z,17.06
2022-09-13T11:24:52.687Z,17.04
2022-09-13T11:27:35.944Z,17.04
2022-09-13T11:30:19.261Z,17.03
2022-09-13T11:33:19.379Z,16.99
2022-09-13T11:36:05.686Z,16.94
2022-09-13T11:38:51.106Z,16.91
2022-09-13T11:41:34.587Z,16.94
2022-09-13T11:44:48.044Z,16.93
2022-09-13T11:47:34.787Z,16.92
2022-09-13T11:50:39.935Z,16.90
2022-09-13T11:53:34.463Z,16.89
2022-09-13T11:56:10.856Z,16.87
2022-09-13T11:58:49.788Z,16.85
2022-09-13T12:01:26.959Z,16.83
2022-09-13T12:04:02.659Z,16.81
2022-09-13T12:06:38.580Z,16.84
2022-09-13T12:09:16.649Z,16.90
2022-09-13T12:11:54.598Z,16.94
2022-09-13T12:14:31.957Z,17.00
2022-09-13T12:17:13.435Z,17.08
2022-09-13T12:19:49.979Z,17.12
2022-09-13T12:22:31.025Z,17.16
2022-09-13T12:25:13.460Z,17.21
2022-09-13T12:27:51.987Z,17.26
2022-09-13T12:30:26.696Z,17.29
2022-09-13T12:32:59.523Z,17.31
2022-09-13T12:35:35.744Z,17.30
2022-09-13T12:38:24.657Z,17.29
2022-09-13T12:41:09.938Z,17.29
2022-09-13T12:44:08.433Z,17.32
2022-09-13T12:47:02.820Z,17.40
2022-09-13T12:49:51.242Z,17.41
2022-09-13T12:52:38.583Z,17.43
2022-09-13T12:55:47.217Z,17.44
2022-09-13T12:58:45.724Z,17.47
2022-09-13T13:06:18.694Z,17.41
2022-09-13T13:09:04.231Z,17.38
2022-09-13T13:11:57.221Z,17.36
2022-09-13T13:14:53.756Z,17.36
2022-09-13T13:17:47.355Z,17.40
2022-09-13T13:21:06.636Z,17.36
2022-09-13T13:23:43.157Z,17.35
2022-09-13T13:26:49.764Z,17.35
2022-09-13T13:29:24.558Z,17.36
2022-09-13T13:32:22.898Z,17.35
2022-09-13T13:35:21.682Z,17.34
2022-09-13T13:37:55.101Z,17.32
2022-09-13T13:40:33.411Z,17.29
2022-09-13T13:43:34.414Z,17.27
2022-09-13T13:46:29.432Z,17.26
2022-09-13T13:49:48.011Z,17.28
2022-09-13T13:52:52.424Z,17.27
2022-09-13T13:55:47.754Z,17.25
2022-09-13T13:58:31.817Z,17.21
2022-09-13T14:01:17.999Z,17.18
2022-09-13T14:04:49.135Z,17.11
2022-09-13T14:07:48.037Z,17.01
2022-09-13T14:10:27.799Z,16.94
2022-09-13T14:13:17.881Z,16.89
2022-09-13T14:15:59.737Z,16.91
2022-09-13T14:19:04.183Z,16.89
2022-09-13T14:21:38.691Z,16.89
2022-09-13T14:24:20.253Z,16.92
2022-09-13T14:26:55.668Z,16.95
2022-09-13T14:29:29.859Z,16.97
2022-09-13T14:32:13.453Z,16.97
2022-09-13T14:35:14.292Z,16.95
2022-09-13T14:38:26.405Z,16.91
2022-09-13T14:41:02.961Z,16.91
2022-09-13T14:43:43.126Z,16.93
2022-09-13T14:46:23.642Z,16.92
2022-09-13T14:48:58.954Z,16.93
2022-09-13T14:51:36.470Z,16.96
2022-09-13T14:54:13.004Z,16.97
2022-09-13T14:56:49.881Z,16.94
2022-09-13T14:59:29.202Z,16.92
2022-09-13T15:02:06.401Z,16.90
2022-09-13T15:04:46.292Z,16.86
2022-09-13T15:07:25.545Z,16.83
2022-09-13T15:10:07.693Z,16.85
2022-09-13T15:12:52.475Z,16.83
2022-09-13T15:15:38.854Z,16.81
2022-09-13T15:18:27.914Z,16.82
2022-09-13T15:21:02.179Z,16.82
2022-09-13T15:23:36.788Z,16.81
2022-09-13T15:26:11.054Z,16.79
2022-09-13T15:28:53.883Z,16.75
2022-09-13T15:31:28.716Z,16.71
2022-09-13T15:34:25.869Z,16.70
2022-09-13T15:37:12.488Z,16.68
2022-09-13T15:40:03.493Z,16.65
2022-09-13T15:42:35.745Z,16.63
2022-09-13T15:45:09.002Z,16.64
2022-09-13T15:47:41.387Z,16.65
2022-09-13T15:50:29.223Z,16.63
2022-09-13T15:53:02.592Z,16.63
2022-09-13T15:55:35.880Z,16.61
2022-09-13T15:58:07.986Z,16.58
2022-09-13T16:00:40.181Z,16.56
2022-09-13T16:03:12.518Z,16.59
2022-09-13T16:05:44.758Z,16.58
2022-09-13T16:08:16.898Z,16.58
2022-09-13T16:10:49.350Z,16.59
2022-09-13T16:13:21.516Z,16.59
2022-09-13T16:15:58.045Z,16.58
2022-09-13T16:18:30.547Z,16.58
2022-09-13T16:21:02.840Z,16.57
2022-09-13T16:23:35.103Z,16.56
2022-09-13T16:26:08.216Z,16.55
2022-09-13T16:28:40.295Z,16.58
2022-09-13T16:31:14.610Z,16.57
2022-09-13T16:33:46.728Z,16.55
2022-09-13T16:36:21.705Z,16.55
2022-09-13T16:38:53.757Z,16.56
2022-09-13T16:41:26.117Z,16.54
2022-09-13T16:43:58.625Z,16.53
2022-09-13T16:46:31.235Z,16.51
2022-09-13T16:49:04.132Z,16.48
2022-09-13T16:51:36.770Z,16.46
2022-09-13T16:54:09.127Z,16.49
2022-09-13T16:56:41.638Z,16.47
2022-09-13T16:59:16.035Z,16.48
2022-09-13T17:01:48.475Z,16.48
2022-09-13T17:04:21.135Z,16.49
2022-09-13T17:06:53.504Z,16.44
2022-09-13T17:09:28.034Z,16.45
2022-09-13T17:12:00.788Z,16.43
2022-09-13T17:14:33.569Z,16.42
2022-09-13T17:17:08.155Z,16.45
2022-09-13T17:19:42.466Z,16.42
2022-09-13T17:22:14.702Z,16.42
2022-09-13T17:24:46.800Z,16.41
2022-09-13T17:27:19.289Z,16.40
2022-09-13T17:29:51.904Z,16.40
2022-09-13T17:32:27.078Z,16.39
2022-09-13T17:34:59.411Z,16.35
2022-09-13T17:37:32.083Z,16.32
2022-09-13T17:40:05.781Z,16.29
2022-09-13T17:42:38.680Z,16.28
2022-09-13T17:45:13.157Z,16.29
2022-09-13T17:47:45.778Z,16.28
2022-09-13T17:50:17.905Z,16.27
2022-09-13T17:52:52.318Z,16.27
2022-09-13T17:55:25.086Z,16.29
2022-09-13T17:57:57.304Z,16.31
2022-09-13T18:00:32.254Z,16.29
2022-09-13T18:03:04.490Z,16.28
2022-09-13T18:05:37.227Z,16.27
2022-09-13T18:08:09.383Z,16.25
2022-09-13T18:10:58.368Z,16.24
2022-09-13T18:13:33.915Z,16.26
2022-09-13T18:16:08.917Z,16.25
2022-09-13T18:18:55.022Z,16.25
2022-09-13T18:21:29.415Z,16.26
2022-09-13T18:24:03.492Z,16.25
2022-09-13T18:26:36.506Z,16.26
2022-09-13T18:29:12.951Z,16.25
2022-09-13T18:31:45.225Z,16.23
2022-09-13T18:34:18.448Z,16.21
2022-09-13T18:36:53.789Z,16.19
2022-09-13T18:39:27.593Z,16.22
2022-09-13T18:42:01.940Z,16.20
2022-09-13T18:44:35.653Z,16.20
2022-09-13T18:47:08.996Z,16.20
2022-09-13T18:49:41.978Z,16.21
2022-09-13T18:52:14.318Z,16.21
2022-09-13T18:54:51.567Z,16.21
2022-09-13T18:57:28.036Z,16.20
2022-09-13T19:00:01.633Z,16.16
2022-09-13T19:02:34.306Z,16.13
2022-09-13T19:05:21.813Z,16.11
2022-09-13T19:07:57.652Z,16.10
2022-09-13T19:10:32.300Z,16.11
2022-09-13T19:13:08.331Z,16.12
2022-09-13T19:16:03.892Z,16.12
2022-09-13T19:18:47.629Z,16.16
2022-09-13T19:21:27.579Z,16.21
2022-09-13T19:24:10.925Z,16.25
2022-09-13T19:27:19.105Z,16.28
2022-09-13T19:29:56.275Z,16.30
2022-09-13T19:32:36.747Z,16.28
2022-09-13T19:35:25.993Z,16.25
2022-09-13T19:38:04.105Z,16.20
2022-09-13T19:40:55.248Z,16.17
2022-09-13T19:43:39.244Z,16.18
2022-09-13T19:46:28.362Z,16.14
2022-09-13T19:49:08.560Z,16.13
2022-09-13T19:51:43.338Z,16.11
2022-09-13T19:54:15.764Z,16.12
2022-09-13T19:56:51.616Z,16.10
2022-09-13T19:59:25.726Z,16.11
2022-09-13T20:01:59.549Z,16.12
2022-09-13T20:04:34.719Z,16.14
2022-09-13T20:07:13.169Z,16.14
2022-09-13T20:09:56.531Z,16.19
2022-09-13T20:12:30.496Z,16.20
2022-09-13T20:15:06.144Z,16.20
2022-09-13T20:17:40.801Z,16.17
2022-09-13T20:20:17.708Z,16.14
2022-09-13T20:22:50.556Z,16.10
2022-09-13T20:25:23.783Z,16.07
2022-09-13T20:27:56.915Z,16.06
2022-09-13T20:30:33.690Z,16.04
2022-09-13T20:33:08.017Z,16.03
2022-09-13T20:35:44.654Z,16.03
2022-09-13T20:38:18.990Z,16.04
2022-09-13T20:40:53.085Z,16.05
2022-09-13T20:43:27.434Z,16.05
2022-09-13T20:46:07.612Z,16.05
2022-09-13T20:48:41.825Z,16.06
2022-09-13T20:51:20.414Z,16.04
2022-09-13T20:54:00.694Z,16.06
2022-09-13T20:56:37.037Z,16.05
2022-09-13T20:59:10.284Z,16.03
2022-09-13T21:01:42.499Z,15.99
2022-09-13T21:04:14.657Z,16.01
2022-09-13T21:07:00.664Z,16.01
2022-09-13T21:09:33.223Z,16.01
2022-09-13T21:12:07.480Z,16.00
2022-09-13T21:14:42.187Z,15.98
2022-09-13T21:17:14.752Z,15.99
2022-09-13T21:19:47.015Z,16.00
2022-09-13T21:22:20.604Z,16.01
2022-09-13T21:24:52.698Z,16.01
2022-09-13T21:27:24.770Z,16.00
2022-09-13T21:29:57.779Z,15.98
2022-09-13T21:32:30.206Z,15.97
2022-09-13T21:35:02.516Z,15.93
2022-09-13T21:37:34.602Z,15.93
2022-09-13T21:40:07.686Z,15.90
2022-09-13T21:42:39.932Z,15.88
2022-09-13T21:45:15.611Z,15.87
2022-09-13T21:47:50.254Z,15.86
2022-09-13T21:50:22.733Z,15.86
2022-09-13T21:52:57.186Z,15.83
2022-09-13T21:55:31.310Z,15.82
2022-09-13T21:58:04.094Z,15.81
2022-09-13T22:00:39.103Z,15.78
2022-09-13T22:03:12.411Z,15.74
2022-09-13T22:05:46.108Z,15.70
2022-09-13T22:08:18.485Z,15.66
2022-09-13T22:10:50.693Z,15.66
2022-09-13T22:13:22.737Z,15.63
2022-09-13T22:15:54.946Z,15.59
2022-09-13T22:18:27.304Z,15.56
2022-09-13T22:21:03.595Z,15.54
2022-09-13T22:23:38.636Z,15.54
2022-09-13T22:26:13.718Z,15.51
2022-09-13T22:28:46.017Z,15.50
2022-09-13T22:31:20.163Z,15.46
2022-09-13T22:33:53.961Z,15.43
2022-09-13T22:36:26.772Z,15.41
2022-09-13T22:39:01.408Z,15.39
2022-09-13T22:41:37.428Z,15.42
2022-09-13T22:44:12.447Z,15.41
2022-09-13T22:46:48.004Z,15.41
2022-09-13T22:49:21.084Z,15.41
2022-09-13T22:51:54.638Z,15.41
2022-09-13T22:54:28.707Z,15.40
2022-09-13T22:57:02.678Z,15.40
2022-09-13T22:59:37.682Z,15.39
2022-09-13T23:02:10.050Z,15.40
2022-09-13T23:04:44.483Z,15.39
2022-09-13T23:07:16.664Z,15.38
2022-09-13T23:09:49.134Z,15.33
2022-09-13T23:12:25.286Z,15.33
2022-09-13T23:14:57.481Z,15.34
2022-09-13T23:17:33.125Z,15.32
2022-09-13T23:20:07.069Z,15.31
2022-09-13T23:22:39.429Z,15.30
2022-09-13T23:25:12.582Z,15.31
2022-09-13T23:27:45.186Z,15.31
2022-09-13T23:30:17.497Z,15.32
2022-09-13T23:32:51.685Z,15.32
2022-09-13T23:35:23.764Z,15.32
2022-09-13T23:37:58.532Z,15.34
2022-09-13T23:40:31.258Z,15.36
2022-09-13T23:43:05.146Z,15.37
2022-09-13T23:45:37.389Z,15.37
2022-09-13T23:48:09.615Z,15.35
2022-09-13T23:50:41.863Z,15.35
2022-09-13T23:53:14.091Z,15.34
2022-09-13T23:55:46.170Z,15.36
2022-09-13T23:58:18.327Z,15.34
